createdAt,value
2019-02-07T00:00:58.460Z,55.56
2019-02-07T00:03:48.838Z,55.43
2019-02-07T00:06:38.855Z,55.46
2019-02-07T00:09:28.778Z,55.21
2019-02-07T00:12:18.635Z,55.36
2019-02-07T00:15:09.220Z,55.12
2019-02-07T00:17:58.863Z,55.12
2019-02-07T00:20:49.745Z,55.23
2019-02-07T00:23:40.011Z,55.13
2019-02-07T00:26:30.157Z,55.16
2019-02-07T00:29:20.577Z,55.01
2019-02-07T00:32:10.486Z,54.73
2019-02-07T00:35:00.353Z,54.71
2019-02-07T00:37:50.379Z,54.71
2019-02-07T00:40:40.414Z,54.71
2019-02-07T00:43:30.347Z,54.36
2019-02-07T00:46:20.074Z,54.20
2019-02-07T00:49:09.938Z,53.83
2019-02-07T00:52:00.246Z,54.08
2019-02-07T00:54:50.193Z,53.72
2019-02-07T00:57:40.078Z,53.15
2019-02-07T01:00:30.196Z,53.46
2019-02-07T01:03:19.868Z,53.46
2019-02-07T01:06:09.724Z,53.74
2019-02-07T01:09:00.023Z,53.66
2019-02-07T01:11:52.142Z,53.77
2019-02-07T01:14:42.532Z,53.93
2019-02-07T01:17:32.266Z,53.80
2019-02-07T01:20:22.521Z,53.72
2019-02-07T01:23:12.673Z,53.77
2019-02-07T01:26:02.734Z,53.81
2019-02-07T01:28:52.446Z,53.78
2019-02-07T01:31:42.185Z,53.24
2019-02-07T01:34:32.147Z,52.83
2019-02-07T01:37:23.380Z,53.10
2019-02-07T01:40:17.132Z,52.61
2019-02-07T01:43:06.691Z,52.22
2019-02-07T01:45:57.110Z,52.41
2019-02-07T01:48:46.983Z,52.34
2019-02-07T01:51:37.258Z,52.61
2019-02-07T01:54:27.271Z,52.67
2019-02-07T01:57:17.274Z,52.55
2019-02-07T02:00:11.506Z,51.56
2019-02-07T02:03:02.301Z,51.84
2019-02-07T02:05:53.175Z,51.49
2019-02-07T02:08:42.809Z,51.48
2019-02-07T02:11:34.276Z,51.69
2019-02-07T02:14:24.425Z,51.93
2019-02-07T02:17:14.498Z,52.06
2019-02-07T02:20:04.953Z,51.61
2019-02-07T02:22:56.124Z,51.74
2019-02-07T02:25:46.246Z,51.70
2019-02-07T02:28:37.400Z,51.42
2019-02-07T02:31:27.432Z,51.68
2019-02-07T02:34:17.422Z,52.05
2019-02-07T02:37:07.399Z,51.96
2019-02-07T02:39:57.453Z,51.96
2019-02-07T02:42:47.569Z,52.21
2019-02-07T02:45:38.035Z,52.27
2019-02-07T02:48:28.952Z,52.02
2019-02-07T02:51:19.076Z,52.05
2019-02-07T02:54:29.264Z,52.20
2019-02-07T02:57:19.417Z,51.88
2019-02-07T03:00:18.236Z,51.38
2019-02-07T03:03:19.187Z,51.71
2019-02-07T03:06:19.675Z,51.79
2019-02-07T03:09:22.028Z,52.05
2019-02-07T03:12:23.451Z,51.71
2019-02-07T03:15:34.477Z,51.46
2019-02-07T03:18:38.792Z,51.76
2019-02-07T03:21:35.222Z,52.10
2019-02-07T03:24:47.085Z,52.09
2019-02-07T03:27:55.667Z,51.94
2019-02-07T03:31:19.009Z,51.70
2019-02-07T03:34:20.963Z,51.74
2019-02-07T03:37:32.626Z,51.40
2019-02-07T03:40:40.329Z,51.79
2019-02-07T03:43:55.526Z,52.11
2019-02-07T03:47:02.667Z,51.94
2019-02-07T03:50:08.673Z,51.68
2019-02-07T03:53:19.978Z,52.13
2019-02-07T03:56:27.940Z,51.85
2019-02-07T03:59:35.270Z,51.75
2019-02-07T04:03:02.677Z,51.94
2019-02-07T04:06:11.560Z,52.20
2019-02-07T04:09:10.713Z,52.23
2019-02-07T04:12:14.659Z,52.25
2019-02-07T04:15:23.846Z,52.40
2019-02-07T04:18:35.813Z,52.54
2019-02-07T04:21:40.430Z,52.51
2019-02-07T04:25:04.784Z,52.56
2019-02-07T04:28:06.830Z,52.82
2019-02-07T04:31:22.364Z,52.33
2019-02-07T04:34:27.326Z,52.42
2019-02-07T04:37:40.531Z,52.55
2019-02-07T04:40:49.407Z,52.59
2019-02-07T04:44:02.988Z,52.39
2019-02-07T04:47:11.705Z,52.27
2019-02-07T04:50:19.479Z,52.28
2019-02-07T04:53:27.308Z,52.60
2019-02-07T04:56:34.112Z,52.83
2019-02-07T04:59:47.641Z,52.84
2019-02-07T05:03:01.797Z,53.14
2019-02-07T05:06:00.901Z,53.22
2019-02-07T05:08:58.441Z,53.04
2019-02-07T05:12:06.191Z,53.40
2019-02-07T05:15:07.288Z,53.47
2019-02-07T05:18:25.389Z,53.63
2019-02-07T05:21:34.721Z,53.90
2019-02-07T05:24:41.455Z,54.10
2019-02-07T05:27:49.470Z,54.13
2019-02-07T05:30:45.580Z,54.15
2019-02-07T05:33:50.944Z,54.29
2019-02-07T05:37:07.652Z,54.33
2019-02-07T05:40:15.035Z,54.41
2019-02-07T05:43:31.743Z,54.25
2019-02-07T05:46:52.875Z,54.47
2019-02-07T05:49:57.806Z,54.64
2019-02-07T05:53:05.551Z,54.68
2019-02-07T05:56:10.722Z,54.85
2019-02-07T05:59:07.786Z,54.87
2019-02-07T06:02:09.860Z,55.02
2019-02-07T06:05:13.413Z,55.03
2019-02-07T06:08:31.265Z,54.69
2019-02-07T06:11:32.038Z,54.93
2019-02-07T06:14:39.758Z,55.01
2019-02-07T06:17:47.070Z,54.99
2019-02-07T06:20:58.701Z,55.09
2019-02-07T06:24:07.312Z,55.25
2019-02-07T06:27:16.141Z,55.36
2019-02-07T06:30:27.250Z,55.19
2019-02-07T06:33:36.009Z,55.56
2019-02-07T06:36:37.438Z,55.88
2019-02-07T06:39:44.701Z,55.88
2019-02-07T06:42:42.168Z,55.68
2019-02-07T06:45:38.655Z,55.52
2019-02-07T06:48:37.700Z,55.34
2019-02-07T06:51:35.156Z,55.35
2019-02-07T06:54:45.233Z,55.40
2019-02-07T06:57:53.984Z,55.36
2019-02-07T07:00:57.327Z,55.38
2019-02-07T07:04:07.762Z,55.23
2019-02-07T07:07:13.150Z,55.10
2019-02-07T07:10:21.763Z,54.62
2019-02-07T07:13:38.005Z,54.48
2019-02-07T07:16:40.326Z,53.98
2019-02-07T07:19:48.325Z,53.95
2019-02-07T07:22:56.345Z,53.80
2019-02-07T07:26:03.937Z,53.11
2019-02-07T07:29:19.427Z,53.42
2019-02-07T07:32:22.827Z,53.36
2019-02-07T07:35:39.952Z,52.66
2019-02-07T07:38:54.012Z,53.19
2019-02-07T07:42:11.224Z,53.59
2019-02-07T07:45:19.078Z,53.07
2019-02-07T07:48:27.352Z,53.43
2019-02-07T07:51:35.162Z,53.48
2019-02-07T07:54:44.188Z,53.16
2019-02-07T07:57:55.943Z,53.06
2019-02-07T08:01:03.708Z,51.87
2019-02-07T08:04:15.473Z,52.53
2019-02-07T08:07:19.579Z,52.22
2019-02-07T08:10:39.983Z,50.76
2019-02-07T08:14:03.747Z,51.53
2019-02-07T08:17:24.907Z,51.48
2019-02-07T08:20:33.838Z,51.17
2019-02-07T08:23:34.979Z,51.18
2019-02-07T08:26:43.445Z,50.56
2019-02-07T08:30:07.248Z,51.14
2019-02-07T08:33:11.917Z,50.89
2019-02-07T08:36:21.204Z,50.98
2019-02-07T08:39:30.412Z,50.26
2019-02-07T08:42:39.419Z,49.64
2019-02-07T08:45:43.265Z,49.33
2019-02-07T08:48:48.933Z,49.48
2019-02-07T08:52:08.801Z,49.14
2019-02-07T08:55:11.900Z,49.00
2019-02-07T08:58:20.517Z,48.92
2019-02-07T09:01:21.044Z,49.15
2019-02-07T09:04:39.414Z,48.08
2019-02-07T09:08:03.671Z,48.04
2019-02-07T09:11:11.632Z,48.06
2019-02-07T09:14:23.491Z,47.70
2019-02-07T09:17:24.526Z,47.76
2019-02-07T09:20:24.514Z,47.89
2019-02-07T09:23:39.334Z,48.05
2019-02-07T09:26:47.183Z,47.98
2019-02-07T09:29:54.833Z,48.34
2019-02-07T09:32:58.727Z,48.32
2019-02-07T09:36:10.221Z,46.91
2019-02-07T09:39:17.525Z,46.88
2019-02-07T09:42:25.494Z,47.36
2019-02-07T09:45:44.096Z,47.27
2019-02-07T09:48:55.871Z,46.57
2019-02-07T09:51:54.235Z,46.41
2019-02-07T09:55:03.466Z,45.75
2019-02-07T09:58:07.659Z,46.35
2019-02-07T10:01:15.502Z,46.54
2019-02-07T10:04:23.388Z,46.48
2019-02-07T10:07:21.690Z,46.29
2019-02-07T10:10:40.720Z,46.38
2019-02-07T10:14:07.709Z,46.15
2019-02-07T10:17:14.779Z,45.98
2019-02-07T10:20:23.675Z,46.36
2019-02-07T10:23:26.494Z,46.12
2019-02-07T10:26:30.822Z,46.45
2019-02-07T10:29:40.160Z,46.36
2019-02-07T10:32:44.675Z,46.05
2019-02-07T10:35:52.070Z,45.61
2019-02-07T10:38:56.700Z,46.20
2019-02-07T10:41:57.757Z,46.10
2019-02-07T10:45:04.951Z,46.34
2019-02-07T10:48:19.530Z,45.83
2019-02-07T10:51:28.723Z,45.49
2019-02-07T10:54:36.245Z,45.73
2019-02-07T10:57:43.935Z,45.65
2019-02-07T11:01:11.221Z,45.70
2019-02-07T11:04:21.333Z,45.97
2019-02-07T11:07:26.437Z,46.09
2019-02-07T11:10:50.512Z,46.48
2019-02-07T11:14:10.986Z,46.44
2019-02-07T11:17:18.158Z,46.38
2019-02-07T11:20:33.324Z,46.89
2019-02-07T11:23:58.610Z,46.91
2019-02-07T11:27:07.370Z,47.02
2019-02-07T11:30:09.229Z,47.00
2019-02-07T11:33:27.282Z,47.41
2019-02-07T11:36:36.012Z,47.14
2019-02-07T11:39:44.860Z,47.43
2019-02-07T11:42:54.319Z,47.56
2019-02-07T11:45:58.275Z,47.95
2019-02-07T11:49:06.604Z,48.03
2019-02-07T11:52:09.064Z,48.07
2019-02-07T11:55:13.912Z,47.98
2019-02-07T11:58:13.911Z,47.84
2019-02-07T12:01:21.706Z,47.18
2019-02-07T12:04:33.296Z,47.18
2019-02-07T12:07:37.732Z,46.97
2019-02-07T12:10:37.147Z,46.34
2019-02-07T12:13:51.727Z,46.27
2019-02-07T12:17:10.907Z,45.64
2019-02-07T12:20:23.682Z,46.47
2019-02-07T12:23:27.803Z,45.04
2019-02-07T12:26:46.045Z,46.13
2019-02-07T12:29:53.388Z,46.20
2019-02-07T12:33:04.649Z,46.66
2019-02-07T12:36:02.192Z,46.85
2019-02-07T12:38:58.300Z,46.83
2019-02-07T12:41:58.532Z,47.03
2019-02-07T12:45:17.387Z,47.42
2019-02-07T12:48:25.311Z,48.07
2019-02-07T12:51:40.940Z,48.43
2019-02-07T12:54:54.583Z,49.46
2019-02-07T12:58:01.835Z,49.73
2019-02-07T13:01:17.504Z,50.51
2019-02-07T13:04:26.212Z,50.67
2019-02-07T13:07:47.950Z,50.65
2019-02-07T13:10:56.495Z,51.49
2019-02-07T13:14:01.116Z,52.55
2019-02-07T13:17:08.569Z,53.47
2019-02-07T13:20:12.097Z,54.91
2019-02-07T13:23:24.414Z,55.71
2019-02-07T13:26:23.821Z,56.14
2019-02-07T13:29:35.814Z,56.66
2019-02-07T13:32:37.783Z,57.08
2019-02-07T13:35:53.055Z,56.71
2019-02-07T13:39:00.129Z,56.71
2019-02-07T13:42:07.497Z,56.82
2019-02-07T13:45:25.427Z,56.58
2019-02-07T13:48:33.370Z,56.39
2019-02-07T13:51:42.181Z,56.19
2019-02-07T13:54:53.698Z,56.03
2019-02-07T13:57:53.300Z,55.84
2019-02-07T14:01:00.885Z,55.62
2019-02-07T14:04:18.727Z,55.68
2019-02-07T14:07:27.423Z,55.78
2019-02-07T14:10:32.997Z,55.63
2019-02-07T14:13:41.215Z,55.79
2019-02-07T14:16:54.236Z,55.47
2019-02-07T14:20:06.404Z,55.81
2019-02-07T14:23:05.051Z,55.92
2019-02-07T14:26:12.771Z,55.95
2019-02-07T14:29:16.701Z,56.05
2019-02-07T14:32:25.470Z,56.01
2019-02-07T14:35:28.185Z,55.89
2019-02-07T14:38:46.551Z,55.74
2019-02-07T14:42:04.640Z,55.94
2019-02-07T14:45:19.185Z,55.90
2019-02-07T14:48:11.114Z,56.32
2019-02-07T14:51:01.162Z,56.55
2019-02-07T14:53:51.224Z,56.60
2019-02-07T14:56:42.064Z,56.63
2019-02-07T14:59:31.652Z,56.60
2019-02-07T15:02:21.133Z,56.45
2019-02-07T15:05:12.190Z,56.23
2019-02-07T15:08:01.862Z,56.35
2019-02-07T15:10:51.707Z,56.22
2019-02-07T15:13:41.614Z,56.16
2019-02-07T15:16:31.631Z,56.37
2019-02-07T15:19:21.823Z,56.43
2019-02-07T15:22:13.123Z,56.49
2019-02-07T15:25:02.880Z,56.51
2019-02-07T15:27:53.568Z,56.39
2019-02-07T15:30:43.404Z,56.33
2019-02-07T15:33:33.337Z,56.32
2019-02-07T15:36:23.220Z,56.25
2019-02-07T15:39:16.058Z,56.53
2019-02-07T15:42:06.203Z,56.46
2019-02-07T15:44:57.686Z,56.91
2019-02-07T15:47:48.101Z,56.75
2019-02-07T15:50:38.548Z,57.00
2019-02-07T15:53:29.881Z,57.22
2019-02-07T15:56:20.071Z,57.32
2019-02-07T15:59:24.387Z,57.28
2019-02-07T16:02:22.006Z,57.58
2019-02-07T16:05:12.783Z,58.10
2019-02-07T16:08:02.523Z,58.02
2019-02-07T16:10:52.524Z,58.01
2019-02-07T16:13:42.501Z,58.40
2019-02-07T16:16:31.918Z,58.38
2019-02-07T16:19:21.653Z,58.57
2019-02-07T16:22:12.033Z,58.57
2019-02-07T16:25:02.501Z,58.78
2019-02-07T16:27:52.554Z,58.79
2019-02-07T16:30:43.466Z,58.73
2019-02-07T16:33:33.624Z,58.68
2019-02-07T16:36:23.489Z,58.77
2019-02-07T16:39:14.778Z,58.98
2019-02-07T16:42:06.543Z,59.04
2019-02-07T16:44:56.638Z,59.07
2019-02-07T16:47:46.673Z,58.99
2019-02-07T16:50:37.275Z,59.18
2019-02-07T16:53:27.500Z,59.25
2019-02-07T16:56:17.086Z,59.42
2019-02-07T16:59:07.298Z,59.48
2019-02-07T17:01:57.050Z,59.39
2019-02-07T17:04:46.782Z,59.69
2019-02-07T17:07:36.578Z,59.72
2019-02-07T17:10:30.444Z,59.77
2019-02-07T17:13:19.791Z,59.89
2019-02-07T17:16:09.951Z,59.75
2019-02-07T17:18:59.937Z,59.68
2019-02-07T17:21:50.263Z,59.68
2019-02-07T17:24:40.364Z,59.80
2019-02-07T17:27:30.524Z,59.83
2019-02-07T17:30:21.286Z,59.80
2019-02-07T17:33:12.065Z,59.97
2019-02-07T17:36:01.922Z,59.97
2019-02-07T17:38:52.402Z,59.74
2019-02-07T17:41:42.314Z,59.86
2019-02-07T17:44:32.690Z,59.83
2019-02-07T17:47:22.839Z,59.79
2019-02-07T17:50:18.269Z,59.79
2019-02-07T17:53:08.421Z,59.74
2019-02-07T17:55:57.872Z,59.73
2019-02-07T17:58:47.563Z,59.77
2019-02-07T18:01:38.045Z,59.83
2019-02-07T18:04:27.729Z,60.02
2019-02-07T18:07:17.737Z,60.19
2019-02-07T18:10:09.512Z,60.21
2019-02-07T18:12:58.685Z,60.34
2019-02-07T18:15:48.746Z,60.29
2019-02-07T18:18:38.849Z,60.14
2019-02-07T18:21:34.249Z,60.10
2019-02-07T18:24:21.056Z,60.27
2019-02-07T18:27:11.297Z,60.33
2019-02-07T18:30:01.388Z,60.44
2019-02-07T18:32:51.987Z,60.39
2019-02-07T18:35:41.982Z,60.40
2019-02-07T18:38:32.132Z,60.31
2019-02-07T18:41:22.188Z,60.33
2019-02-07T18:44:12.349Z,60.30
2019-02-07T18:47:01.784Z,60.21
2019-02-07T18:49:51.492Z,60.16
2019-02-07T18:52:41.848Z,60.23
2019-02-07T18:55:32.187Z,60.36
2019-02-07T18:58:22.517Z,60.49
2019-02-07T19:01:12.528Z,60.50
2019-02-07T19:04:02.491Z,60.45
2019-02-07T19:06:52.820Z,60.63
2019-02-07T19:09:42.657Z,60.66
2019-02-07T19:12:32.753Z,60.79
2019-02-07T19:15:25.006Z,60.88
2019-02-07T19:18:14.622Z,60.92
2019-02-07T19:21:04.518Z,60.93
2019-02-07T19:23:54.989Z,60.88
2019-02-07T19:26:44.623Z,60.82
2019-02-07T19:29:34.983Z,60.75
2019-02-07T19:32:25.540Z,60.68
2019-02-07T19:35:15.794Z,60.67
2019-02-07T19:38:07.914Z,60.68
2019-02-07T19:40:58.297Z,60.70
2019-02-07T19:43:48.185Z,60.62
2019-02-07T19:46:38.722Z,60.65
2019-02-07T19:49:29.259Z,60.64
2019-02-07T19:52:19.316Z,60.71
2019-02-07T19:55:13.679Z,60.87
2019-02-07T19:58:03.860Z,60.97
2019-02-07T20:00:54.329Z,60.91
2019-02-07T20:03:44.827Z,60.92
2019-02-07T20:06:34.620Z,60.96
2019-02-07T20:09:24.421Z,60.91
2019-02-07T20:12:14.537Z,60.82
2019-02-07T20:15:08.677Z,60.94
2019-02-07T20:20:50.920Z,60.90
2019-02-07T20:23:41.184Z,60.91
2019-02-07T20:26:31.113Z,60.87
2019-02-07T20:29:21.093Z,60.75
2019-02-07T20:32:11.128Z,60.65
2019-02-07T20:35:01.230Z,60.61
2019-02-07T20:37:52.043Z,60.61
2019-02-07T20:40:42.550Z,60.61
2019-02-07T20:43:33.583Z,60.63
2019-02-07T20:46:22.702Z,60.64
2019-02-07T20:49:12.576Z,60.65
2019-02-07T20:52:02.452Z,60.63
2019-02-07T20:54:52.839Z,60.65
2019-02-07T20:57:43.332Z,60.74
2019-02-07T21:00:35.777Z,60.72
2019-02-07T21:03:25.778Z,60.78
2019-02-07T21:06:15.819Z,60.88
2019-02-07T21:09:09.422Z,60.89
2019-02-07T21:12:00.310Z,60.88
2019-02-07T21:14:49.922Z,60.89
2019-02-07T21:17:39.803Z,60.86
2019-02-07T21:20:30.117Z,60.92
2019-02-07T21:23:19.852Z,61.06
2019-02-07T21:26:10.090Z,61.18
2019-02-07T21:29:00.149Z,61.15
2019-02-07T21:31:50.327Z,61.12
2019-02-07T21:34:40.906Z,61.26
2019-02-07T21:37:30.602Z,61.25
2019-02-07T21:40:27.482Z,61.30
2019-02-07T21:43:19.006Z,61.28
2019-02-07T21:46:09.139Z,61.34
2019-02-07T21:48:59.579Z,61.29
2019-02-07T21:51:49.448Z,61.27
2019-02-07T21:54:41.222Z,61.34
2019-02-07T21:57:31.815Z,61.33
2019-02-07T22:00:34.459Z,61.33
2019-02-07T22:03:24.336Z,61.34
2019-02-07T22:06:14.257Z,61.34
2019-02-07T22:09:05.947Z,61.52
2019-02-07T22:11:56.852Z,61.49
2019-02-07T22:14:46.272Z,61.57
2019-02-07T22:17:36.492Z,61.51
2019-02-07T22:20:27.498Z,61.50
2019-02-07T22:23:17.331Z,61.54
2019-02-07T22:26:07.438Z,61.48
2019-02-07T22:28:57.338Z,61.53
2019-02-07T22:31:47.458Z,61.61
2019-02-07T22:34:39.434Z,61.55
2019-02-07T22:37:29.181Z,61.63
2019-02-07T22:40:22.067Z,61.67
2019-02-07T22:43:12.178Z,61.69
2019-02-07T22:46:02.324Z,61.73
2019-02-07T22:48:52.555Z,61.69
2019-02-07T22:51:42.949Z,61.73
2019-02-07T22:54:32.883Z,61.76
2019-02-07T22:57:22.921Z,61.75
2019-02-07T23:01:28.286Z,61.84
2019-02-07T23:04:19.315Z,61.88
2019-02-07T23:07:09.221Z,62.00
2019-02-07T23:09:59.553Z,62.01
2019-02-07T23:12:49.686Z,61.92
2019-02-07T23:15:40.443Z,61.92
2019-02-07T23:18:30.274Z,61.83
2019-02-07T23:21:19.321Z,61.99
2019-02-07T23:24:09.350Z,61.81
2019-02-07T23:27:00.748Z,61.76
2019-02-07T23:29:50.337Z,61.82
2019-02-07T23:32:40.030Z,61.81
2019-02-07T23:35:29.885Z,61.71
2019-02-07T23:38:19.733Z,61.63
2019-02-07T23:41:11.061Z,61.63
2019-02-07T23:44:01.220Z,61.58
2019-02-07T23:46:51.005Z,61.51
2019-02-07T23:49:41.183Z,61.44
2019-02-07T23:52:32.991Z,61.46
2019-02-07T23:55:23.064Z,61.49
2019-02-07T23:58:15.901Z,61.61
